Amboy, California
Current Conditions -  °F | °C
As of 11:56 PM on Tuesday 21 Oct 2014 (Local Time) from KNXP Reporting Station
Clear Clear  
Wind Chill: 65°   Ceiling: Unl
Heat Index: 65°   Visibility: 10mi
Dew Point: 31°   Wind: 7mph
Humidity: 28%   Direction: 300°WNW
Pressure: 29.98"   Gusts: NA
Location:  34.56°N, 115.75°W
Report Text: KNXP 220656Z AUTO 30006KT 10SM CLR 18/M01 A2998 RMK AO2 SLP119 T01831006
Loading
Personal Weather Stations






























Interactive Weather Map New forecast layout! Learn more

10-Day Weather Forecast

Advertisements
Track Severe Weather on mobile